sensor_id;sensor_type;location;lat;lon;timestamp;pressure;altitude;pressure_sealevel;temperature;humidity
48888;BME280;42598;53.802;-1.632;2022-12-18T00:01:20;101028.98;;;2.77;75.86
48888;BME280;42598;53.802;-1.632;2022-12-18T00:03:48;101033.58;;;3.36;74.08
48888;BME280;42598;53.802;-1.632;2022-12-18T00:06:16;101033.22;;;2.20;77.60
48888;BME280;42598;53.802;-1.632;2022-12-18T00:08:45;101034.12;;;3.51;73.48
48888;BME280;42598;53.802;-1.632;2022-12-18T00:11:14;101038.29;;;3.75;72.27
48888;BME280;42598;53.802;-1.632;2022-12-18T00:13:42;101048.10;;;2.67;76.05
48888;BME280;42598;53.802;-1.632;2022-12-18T00:16:11;101054.84;;;3.32;74.76
48888;BME280;42598;53.802;-1.632;2022-12-18T00:18:39;101048.03;;;3.13;73.79
48888;BME280;42598;53.802;-1.632;2022-12-18T00:21:08;101046.80;;;3.28;73.08
48888;BME280;42598;53.802;-1.632;2022-12-18T00:23:37;101044.76;;;3.75;72.12
48888;BME280;42598;53.802;-1.632;2022-12-18T00:26:07;101037.90;;;3.25;73.72
48888;BME280;42598;53.802;-1.632;2022-12-18T00:28:34;101047.57;;;3.90;71.98
48888;BME280;42598;53.802;-1.632;2022-12-18T00:31:02;101048.23;;;3.09;72.67
48888;BME280;42598;53.802;-1.632;2022-12-18T00:33:30;101052.29;;;3.00;72.45
48888;BME280;42598;53.802;-1.632;2022-12-18T00:36:00;101058.59;;;3.11;72.37
48888;BME280;42598;53.802;-1.632;2022-12-18T00:38:27;101058.48;;;3.72;71.05
48888;BME280;42598;53.802;-1.632;2022-12-18T00:40:55;101054.62;;;1.53;78.95
48888;BME280;42598;53.802;-1.632;2022-12-18T00:43:22;101046.13;;;2.42;79.54
48888;BME280;42598;53.802;-1.632;2022-12-18T00:45:49;101041.01;;;2.92;76.35
48888;BME280;42598;53.802;-1.632;2022-12-18T00:48:17;101041.97;;;2.74;75.09
48888;BME280;42598;53.802;-1.632;2022-12-18T00:50:44;101050.47;;;2.67;77.33
48888;BME280;42598;53.802;-1.632;2022-12-18T00:53:12;101049.86;;;3.45;74.40
48888;BME280;42598;53.802;-1.632;2022-12-18T00:55:40;101052.78;;;3.57;73.84
48888;BME280;42598;53.802;-1.632;2022-12-18T00:58:07;101054.00;;;3.54;73.14
48888;BME280;42598;53.802;-1.632;2022-12-18T01:00:34;101055.80;;;3.28;72.49
48888;BME280;42598;53.802;-1.632;2022-12-18T01:03:02;101056.44;;;3.55;71.45
48888;BME280;42598;53.802;-1.632;2022-12-18T01:05:30;101055.62;;;1.57;79.13
48888;BME280;42598;53.802;-1.632;2022-12-18T01:07:58;101054.92;;;2.11;79.66
48888;BME280;42598;53.802;-1.632;2022-12-18T01:10:26;101057.81;;;2.85;75.25
48888;BME280;42598;53.802;-1.632;2022-12-18T01:12:53;101056.68;;;2.02;78.25
48888;BME280;42598;53.802;-1.632;2022-12-18T01:15:21;101053.92;;;2.05;77.78
48888;BME280;42598;53.802;-1.632;2022-12-18T01:17:49;101052.13;;;2.46;74.88
48888;BME280;42598;53.802;-1.632;2022-12-18T01:20:18;101045.94;;;2.36;75.53
48888;BME280;42598;53.802;-1.632;2022-12-18T01:22:45;101057.40;;;1.67;76.52
48888;BME280;42598;53.802;-1.632;2022-12-18T01:25:13;101051.56;;;1.57;77.24
48888;BME280;42598;53.802;-1.632;2022-12-18T01:27:40;101049.10;;;3.42;71.83
48888;BME280;42598;53.802;-1.632;2022-12-18T01:30:08;101052.02;;;2.34;74.08
48888;BME280;42598;53.802;-1.632;2022-12-18T01:32:35;101045.94;;;2.34;74.29
48888;BME280;42598;53.802;-1.632;2022-12-18T01:35:04;101041.27;;;2.45;73.97
48888;BME280;42598;53.802;-1.632;2022-12-18T01:37:32;101040.37;;;2.28;74.86
48888;BME280;42598;53.802;-1.632;2022-12-18T01:39:58;101045.82;;;2.35;74.23
48888;BME280;42598;53.802;-1.632;2022-12-18T01:42:26;101046.56;;;2.68;74.23
48888;BME280;42598;53.802;-1.632;2022-12-18T01:45:00;101041.81;;;2.54;73.00
48888;BME280;42598;53.802;-1.632;2022-12-18T01:47:33;101039.09;;;2.41;73.54
48888;BME280;42598;53.802;-1.632;2022-12-18T01:50:05;101042.77;;;1.16;77.37
48888;BME280;42598;53.802;-1.632;2022-12-18T01:52:33;101045.07;;;1.80;75.50
48888;BME280;42598;53.802;-1.632;2022-12-18T01:55:04;101040.41;;;1.78;74.98
48888;BME280;42598;53.802;-1.632;2022-12-18T01:57:32;101031.37;;;1.21;75.25
48888;BME280;42598;53.802;-1.632;2022-12-18T02:00:01;101030.34;;;1.97;73.56
48888;BME280;42598;53.802;-1.632;2022-12-18T02:02:30;101037.78;;;2.82;71.08
48888;BME280;42598;53.802;-1.632;2022-12-18T02:04:58;101034.40;;;2.98;70.28
48888;BME280;42598;53.802;-1.632;2022-12-18T02:07:32;101035.73;;;2.13;73.38
48888;BME280;42598;53.802;-1.632;2022-12-18T02:10:10;101029.91;;;2.00;73.40
48888;BME280;42598;53.802;-1.632;2022-12-18T02:12:48;101025.52;;;2.56;72.05
48888;BME280;42598;53.802;-1.632;2022-12-18T02:15:24;101027.40;;;2.14;72.87
48888;BME280;42598;53.802;-1.632;2022-12-18T02:17:55;101026.71;;;2.10;74.01
48888;BME280;42598;53.802;-1.632;2022-12-18T02:20:31;101021.52;;;2.10;73.11
48888;BME280;42598;53.802;-1.632;2022-12-18T02:23:10;101021.17;;;1.37;76.15
48888;BME280;42598;53.802;-1.632;2022-12-18T02:25:52;101023.50;;;1.69;74.92
48888;BME280;42598;53.802;-1.632;2022-12-18T02:28:22;101037.59;;;-1.89;88.16
48888;BME280;42598;53.802;-1.632;2022-12-18T02:30:51;101040.46;;;-0.72;87.64
48888;BME280;42598;53.802;-1.632;2022-12-18T02:33:20;101030.83;;;0.64;84.02
48888;BME280;42598;53.802;-1.632;2022-12-18T02:35:49;101036.19;;;0.35;81.86
48888;BME280;42598;53.802;-1.632;2022-12-18T02:38:18;101028.91;;;1.09;80.09
48888;BME280;42598;53.802;-1.632;2022-12-18T02:40:45;101028.71;;;1.79;77.83
48888;BME280;42598;53.802;-1.632;2022-12-18T02:43:14;101029.45;;;1.93;76.51
48888;BME280;42598;53.802;-1.632;2022-12-18T02:45:47;101032.46;;;2.15;74.29
48888;BME280;42598;53.802;-1.632;2022-12-18T02:48:16;101030.06;;;1.39;75.94
48888;BME280;42598;53.802;-1.632;2022-12-18T02:50:47;101024.39;;;1.88;73.98
48888;BME280;42598;53.802;-1.632;2022-12-18T02:53:26;101026.95;;;1.79;74.00
48888;BME280;42598;53.802;-1.632;2022-12-18T02:56:01;101029.98;;;1.58;74.21
48888;BME280;42598;53.802;-1.632;2022-12-18T02:58:35;101031.01;;;0.92;77.43
48888;BME280;42598;53.802;-1.632;2022-12-18T03:01:11;101038.41;;;2.03;73.54
48888;BME280;42598;53.802;-1.632;2022-12-18T03:03:43;101033.29;;;1.60;74.66
48888;BME280;42598;53.802;-1.632;2022-12-18T03:06:18;101032.73;;;1.58;74.34
48888;BME280;42598;53.802;-1.632;2022-12-18T03:08:52;101029.38;;;1.21;74.23
48888;BME280;42598;53.802;-1.632;2022-12-18T03:11:21;101026.07;;;0.62;77.40
48888;BME280;42598;53.802;-1.632;2022-12-18T03:13:51;101020.63;;;1.19;75.40
48888;BME280;42598;53.802;-1.632;2022-12-18T03:16:25;101020.36;;;1.45;74.27
48888;BME280;42598;53.802;-1.632;2022-12-18T03:18:56;101024.45;;;2.15;72.20
48888;BME280;42598;53.802;-1.632;2022-12-18T03:21:29;101022.73;;;1.14;74.24
48888;BME280;42598;53.802;-1.632;2022-12-18T03:24:00;101013.19;;;1.26;73.76
48888;BME280;42598;53.802;-1.632;2022-12-18T03:26:35;101007.24;;;2.05;72.19
48888;BME280;42598;53.802;-1.632;2022-12-18T03:29:07;101012.71;;;1.97;71.58
48888;BME280;42598;53.802;-1.632;2022-12-18T03:31:40;101015.53;;;0.98;72.98
48888;BME280;42598;53.802;-1.632;2022-12-18T03:34:11;101019.41;;;1.92;71.80
48888;BME280;42598;53.802;-1.632;2022-12-18T03:36:40;101014.93;;;0.39;75.06
48888;BME280;42598;53.802;-1.632;2022-12-18T03:39:07;101003.52;;;0.92;74.77
48888;BME280;42598;53.802;-1.632;2022-12-18T03:41:41;100991.79;;;0.83;74.49
48888;BME280;42598;53.802;-1.632;2022-12-18T03:44:12;100993.90;;;0.99;74.60
48888;BME280;42598;53.802;-1.632;2022-12-18T03:46:45;100994.82;;;0.39;75.13
48888;BME280;42598;53.802;-1.632;2022-12-18T03:49:17;100994.46;;;0.70;73.74
48888;BME280;42598;53.802;-1.632;2022-12-18T03:51:51;100994.29;;;-1.01;83.35
48888;BME280;42598;53.802;-1.632;2022-12-18T03:54:19;100999.40;;;-1.13;84.85
48888;BME280;42598;53.802;-1.632;2022-12-18T03:56:49;100996.35;;;-2.44;86.98
48888;BME280;42598;53.802;-1.632;2022-12-18T03:59:20;100974.48;;;0.75;78.86
48888;BME280;42598;53.802;-1.632;2022-12-18T04:01:49;100971.06;;;0.11;78.30
48888;BME280;42598;53.802;-1.632;2022-12-18T04:04:20;100971.72;;;1.25;75.57
48888;BME280;42598;53.802;-1.632;2022-12-18T04:06:50;100976.28;;;1.82;73.49
48888;BME280;42598;53.802;-1.632;2022-12-18T04:09:18;100980.20;;;0.66;75.34
48888;BME280;42598;53.802;-1.632;2022-12-18T04:11:46;100980.98;;;0.50;76.31
48888;BME280;42598;53.802;-1.632;2022-12-18T04:14:13;100975.27;;;0.17;76.59
48888;BME280;42598;53.802;-1.632;2022-12-18T04:16:41;100975.26;;;0.96;74.11
48888;BME280;42598;53.802;-1.632;2022-12-18T04:19:08;100959.95;;;1.91;72.05
48888;BME280;42598;53.802;-1.632;2022-12-18T04:21:36;100949.84;;;1.24;73.11
48888;BME280;42598;53.802;-1.632;2022-12-18T04:24:03;100947.34;;;1.18;73.50
48888;BME280;42598;53.802;-1.632;2022-12-18T04:26:30;100929.85;;;0.46;75.11
48888;BME280;42598;53.802;-1.632;2022-12-18T04:28:57;100937.62;;;1.04;73.14
48888;BME280;42598;53.802;-1.632;2022-12-18T04:31:25;100939.16;;;1.31;72.79
48888;BME280;42598;53.802;-1.632;2022-12-18T04:33:52;100938.01;;;0.82;72.69
48888;BME280;42598;53.802;-1.632;2022-12-18T04:36:20;100943.70;;;0.66;75.92
48888;BME280;42598;53.802;-1.632;2022-12-18T04:38:47;100929.27;;;-0.34;77.84
48888;BME280;42598;53.802;-1.632;2022-12-18T04:41:14;100918.70;;;0.61;75.36
48888;BME280;42598;53.802;-1.632;2022-12-18T04:43:42;100914.40;;;0.59;75.74
48888;BME280;42598;53.802;-1.632;2022-12-18T04:46:09;100908.59;;;-0.05;76.46
48888;BME280;42598;53.802;-1.632;2022-12-18T04:48:37;100907.56;;;-0.17;76.58
48888;BME280;42598;53.802;-1.632;2022-12-18T04:51:05;100901.81;;;-0.19;78.23
48888;BME280;42598;53.802;-1.632;2022-12-18T04:53:33;100897.94;;;0.31;76.09
48888;BME280;42598;53.802;-1.632;2022-12-18T04:56:05;100899.90;;;0.55;75.55
48888;BME280;42598;53.802;-1.632;2022-12-18T04:58:33;100907.46;;;-0.14;76.82
48888;BME280;42598;53.802;-1.632;2022-12-18T05:01:00;100907.29;;;-0.28;77.25
48888;BME280;42598;53.802;-1.632;2022-12-18T05:03:27;100905.14;;;-0.05;77.07
48888;BME280;42598;53.802;-1.632;2022-12-18T05:05:55;100912.18;;;0.63;75.47
48888;BME280;42598;53.802;-1.632;2022-12-18T05:08:23;100913.00;;;-0.46;78.14
48888;BME280;42598;53.802;-1.632;2022-12-18T05:10:58;100907.95;;;-0.94;80.42
48888;BME280;42598;53.802;-1.632;2022-12-18T05:13:26;100906.78;;;-1.37;82.14
48888;BME280;42598;53.802;-1.632;2022-12-18T05:15:54;100898.23;;;-1.25;80.98
48888;BME280;42598;53.802;-1.632;2022-12-18T05:18:22;100885.07;;;-1.04;82.25
48888;BME280;42598;53.802;-1.632;2022-12-18T05:20:49;100878.67;;;-0.66;79.93
48888;BME280;42598;53.802;-1.632;2022-12-18T05:23:16;100880.01;;;-0.06;78.84
48888;BME280;42598;53.802;-1.632;2022-12-18T05:25:50;100875.62;;;-0.65;79.80
48888;BME280;42598;53.802;-1.632;2022-12-18T05:28:17;100870.18;;;-0.44;80.22
48888;BME280;42598;53.802;-1.632;2022-12-18T05:30:48;100867.32;;;-0.39;80.41
48888;BME280;42598;53.802;-1.632;2022-12-18T05:33:15;100857.57;;;-0.52;79.30
48888;BME280;42598;53.802;-1.632;2022-12-18T05:35:43;100860.33;;;0.63;75.88
48888;BME280;42598;53.802;-1.632;2022-12-18T05:38:10;100860.66;;;0.21;76.74
48888;BME280;42598;53.802;-1.632;2022-12-18T05:40:37;100862.21;;;0.62;75.92
48888;BME280;42598;53.802;-1.632;2022-12-18T05:43:08;100860.09;;;0.26;75.66
48888;BME280;42598;53.802;-1.632;2022-12-18T05:45:37;100860.56;;;-0.10;78.95
48888;BME280;42598;53.802;-1.632;2022-12-18T05:48:04;100859.09;;;0.38;76.34
48888;BME280;42598;53.802;-1.632;2022-12-18T05:50:34;100851.30;;;-0.11;76.88
48888;BME280;42598;53.802;-1.632;2022-12-18T05:53:01;100854.43;;;0.41;76.15
48888;BME280;42598;53.802;-1.632;2022-12-18T05:55:32;100855.02;;;-1.08;79.91
48888;BME280;42598;53.802;-1.632;2022-12-18T05:58:00;100846.48;;;-1.34;83.18
48888;BME280;42598;53.802;-1.632;2022-12-18T06:00:27;100856.34;;;-1.29;83.05
48888;BME280;42598;53.802;-1.632;2022-12-18T06:02:55;100858.14;;;-1.64;85.75
48888;BME280;42598;53.802;-1.632;2022-12-18T06:05:22;100869.08;;;-0.93;84.37
48888;BME280;42598;53.802;-1.632;2022-12-18T06:07:50;100876.86;;;-0.95;84.47
48888;BME280;42598;53.802;-1.632;2022-12-18T06:10:17;100893.71;;;-2.13;88.81
48888;BME280;42598;53.802;-1.632;2022-12-18T06:12:44;100892.46;;;-0.82;85.89
48888;BME280;42598;53.802;-1.632;2022-12-18T06:15:14;100899.20;;;-1.27;85.82
48888;BME280;42598;53.802;-1.632;2022-12-18T06:17:42;100903.11;;;-1.56;85.21
48888;BME280;42598;53.802;-1.632;2022-12-18T06:20:10;100895.21;;;-1.01;85.64
48888;BME280;42598;53.802;-1.632;2022-12-18T06:22:37;100904.69;;;-1.10;84.81
48888;BME280;42598;53.802;-1.632;2022-12-18T06:25:06;100894.62;;;-1.07;84.65
48888;BME280;42598;53.802;-1.632;2022-12-18T06:27:33;100893.54;;;-0.92;85.20
48888;BME280;42598;53.802;-1.632;2022-12-18T06:30:00;100894.33;;;-1.11;84.92
48888;BME280;42598;53.802;-1.632;2022-12-18T06:32:28;100895.44;;;-0.49;83.16
48888;BME280;42598;53.802;-1.632;2022-12-18T06:34:54;100902.65;;;0.44;80.85
48888;BME280;42598;53.802;-1.632;2022-12-18T06:37:22;100899.80;;;-0.54;80.17
48888;BME280;42598;53.802;-1.632;2022-12-18T06:39:49;100894.93;;;0.34;79.02
48888;BME280;42598;53.802;-1.632;2022-12-18T06:42:16;100875.36;;;-0.48;80.60
48888;BME280;42598;53.802;-1.632;2022-12-18T06:44:43;100879.97;;;0.37;78.50
48888;BME280;42598;53.802;-1.632;2022-12-18T06:47:11;100882.51;;;-0.37;80.43
48888;BME280;42598;53.802;-1.632;2022-12-18T06:49:38;100879.02;;;-0.36;82.03
48888;BME280;42598;53.802;-1.632;2022-12-18T06:52:05;100888.12;;;-1.27;85.05
48888;BME280;42598;53.802;-1.632;2022-12-18T06:54:33;100893.98;;;-0.87;84.77
48888;BME280;42598;53.802;-1.632;2022-12-18T06:57:00;100891.58;;;-1.14;85.27
48888;BME280;42598;53.802;-1.632;2022-12-18T06:59:27;100887.13;;;-0.78;82.91
48888;BME280;42598;53.802;-1.632;2022-12-18T07:01:54;100888.43;;;-0.25;82.52
48888;BME280;42598;53.802;-1.632;2022-12-18T07:04:21;100891.06;;;-0.30;82.84
48888;BME280;42598;53.802;-1.632;2022-12-18T07:06:48;100893.19;;;-0.56;83.71
48888;BME280;42598;53.802;-1.632;2022-12-18T07:09:15;100881.41;;;-0.73;84.93
48888;BME280;42598;53.802;-1.632;2022-12-18T07:11:42;100878.66;;;-1.73;88.28
48888;BME280;42598;53.802;-1.632;2022-12-18T07:14:09;100870.09;;;-0.88;86.08
48888;BME280;42598;53.802;-1.632;2022-12-18T07:16:36;100858.90;;;-2.56;92.79
48888;BME280;42598;53.802;-1.632;2022-12-18T07:19:04;100838.61;;;-1.47;91.13
48888;BME280;42598;53.802;-1.632;2022-12-18T07:21:31;100829.59;;;-0.52;87.58
48888;BME280;42598;53.802;-1.632;2022-12-18T07:23:58;100832.54;;;-1.02;88.11
48888;BME280;42598;53.802;-1.632;2022-12-18T07:26:25;100838.35;;;-0.72;88.06
48888;BME280;42598;53.802;-1.632;2022-12-18T07:28:55;100832.13;;;-1.07;88.81
48888;BME280;42598;53.802;-1.632;2022-12-18T07:31:23;100819.94;;;-1.09;89.79
48888;BME280;42598;53.802;-1.632;2022-12-18T07:33:52;100818.03;;;-2.10;96.32
48888;BME280;42598;53.802;-1.632;2022-12-18T07:36:20;100807.90;;;-2.20;96.04
48888;BME280;42598;53.802;-1.632;2022-12-18T07:38:48;100806.75;;;-2.08;97.56
48888;BME280;42598;53.802;-1.632;2022-12-18T07:41:17;100820.35;;;-1.94;96.34
48888;BME280;42598;53.802;-1.632;2022-12-18T07:43:43;100819.68;;;-1.01;94.30
48888;BME280;42598;53.802;-1.632;2022-12-18T07:46:12;100823.42;;;-1.78;94.30
48888;BME280;42598;53.802;-1.632;2022-12-18T07:48:40;100824.88;;;-1.03;91.91
48888;BME280;42598;53.802;-1.632;2022-12-18T07:51:07;100829.23;;;-1.19;91.29
48888;BME280;42598;53.802;-1.632;2022-12-18T07:53:35;100832.10;;;-1.52;93.74
48888;BME280;42598;53.802;-1.632;2022-12-18T07:56:04;100833.08;;;-2.35;96.88
48888;BME280;42598;53.802;-1.632;2022-12-18T07:58:33;100832.05;;;-1.79;95.29
48888;BME280;42598;53.802;-1.632;2022-12-18T08:01:04;100832.31;;;-2.15;94.75
48888;BME280;42598;53.802;-1.632;2022-12-18T08:03:32;100835.61;;;-1.97;96.27
48888;BME280;42598;53.802;-1.632;2022-12-18T08:06:02;100838.58;;;-1.82;95.29
48888;BME280;42598;53.802;-1.632;2022-12-18T08:08:29;100849.98;;;-2.05;95.37
48888;BME280;42598;53.802;-1.632;2022-12-18T08:10:58;100848.85;;;-1.90;94.22
48888;BME280;42598;53.802;-1.632;2022-12-18T08:13:27;100836.29;;;-1.28;91.00
48888;BME280;42598;53.802;-1.632;2022-12-18T08:15:57;100834.04;;;-2.09;92.98
48888;BME280;42598;53.802;-1.632;2022-12-18T08:18:24;100826.01;;;-2.28;94.52
48888;BME280;42598;53.802;-1.632;2022-12-18T08:20:51;100820.88;;;-2.04;94.35
48888;BME280;42598;53.802;-1.632;2022-12-18T08:23:18;100826.61;;;-1.39;93.24
48888;BME280;42598;53.802;-1.632;2022-12-18T08:25:45;100828.71;;;-1.52;91.88
48888;BME280;42598;53.802;-1.632;2022-12-18T08:28:17;100837.89;;;-1.98;92.83
48888;BME280;42598;53.802;-1.632;2022-12-18T08:30:44;100837.82;;;-1.31;91.16
48888;BME280;42598;53.802;-1.632;2022-12-18T08:33:12;100840.21;;;-1.57;91.29
48888;BME280;42598;53.802;-1.632;2022-12-18T08:35:39;100843.16;;;-1.08;88.67
48888;BME280;42598;53.802;-1.632;2022-12-18T08:38:07;100844.56;;;-1.01;89.63
48888;BME280;42598;53.802;-1.632;2022-12-18T08:40:45;100833.34;;;-0.36;86.20
48888;BME280;42598;53.802;-1.632;2022-12-18T08:43:12;100840.03;;;-2.22;91.16
48888;BME280;42598;53.802;-1.632;2022-12-18T08:45:40;100827.41;;;-1.20;88.84
48888;BME280;42598;53.802;-1.632;2022-12-18T08:48:07;100824.28;;;-0.53;87.15
48888;BME280;42598;53.802;-1.632;2022-12-18T08:50:34;100821.84;;;-1.52;89.53
48888;BME280;42598;53.802;-1.632;2022-12-18T08:53:01;100812.01;;;-1.47;91.39
48888;BME280;42598;53.802;-1.632;2022-12-18T08:55:28;100806.82;;;-1.81;90.59
48888;BME280;42598;53.802;-1.632;2022-12-18T08:57:56;100808.86;;;-2.22;92.92
48888;BME280;42598;53.802;-1.632;2022-12-18T09:00:23;100797.32;;;-2.46;95.75
48888;BME280;42598;53.802;-1.632;2022-12-18T09:02:51;100792.51;;;-2.01;93.62
48888;BME280;42598;53.802;-1.632;2022-12-18T09:05:18;100765.03;;;-1.97;92.34
48888;BME280;42598;53.802;-1.632;2022-12-18T09:07:45;100748.32;;;-0.55;87.68
48888;BME280;42598;53.802;-1.632;2022-12-18T09:10:12;100745.59;;;-0.97;87.97
48888;BME280;42598;53.802;-1.632;2022-12-18T09:12:40;100746.96;;;-1.40;91.02
48888;BME280;42598;53.802;-1.632;2022-12-18T09:15:07;100748.07;;;-1.78;90.51
48888;BME280;42598;53.802;-1.632;2022-12-18T09:17:35;100760.89;;;-1.74;91.83
48888;BME280;42598;53.802;-1.632;2022-12-18T09:20:03;100751.47;;;-1.26;89.09
48888;BME280;42598;53.802;-1.632;2022-12-18T09:22:30;100749.22;;;-2.02;91.80
48888;BME280;42598;53.802;-1.632;2022-12-18T09:24:58;100747.54;;;-3.11;95.75
48888;BME280;42598;53.802;-1.632;2022-12-18T09:27:25;100734.02;;;-1.87;92.73
48888;BME280;42598;53.802;-1.632;2022-12-18T09:29:52;100735.44;;;-1.67;92.56
48888;BME280;42598;53.802;-1.632;2022-12-18T09:32:19;100736.50;;;-2.10;91.92
48888;BME280;42598;53.802;-1.632;2022-12-18T09:34:47;100741.86;;;-2.50;92.69
48888;BME280;42598;53.802;-1.632;2022-12-18T09:37:14;100739.49;;;-1.46;89.95
48888;BME280;42598;53.802;-1.632;2022-12-18T09:39:41;100740.08;;;-1.87;93.05
48888;BME280;42598;53.802;-1.632;2022-12-18T09:42:17;100730.52;;;-1.72;91.12
48888;BME280;42598;53.802;-1.632;2022-12-18T09:44:50;100719.71;;;-0.99;87.92
48888;BME280;42598;53.802;-1.632;2022-12-18T09:47:20;100718.91;;;-0.17;86.94
48888;BME280;42598;53.802;-1.632;2022-12-18T09:49:50;100718.76;;;-0.68;86.18
48888;BME280;42598;53.802;-1.632;2022-12-18T09:52:23;100713.48;;;-1.08;87.36
48888;BME280;42598;53.802;-1.632;2022-12-18T09:54:54;100712.33;;;-0.86;86.13
48888;BME280;42598;53.802;-1.632;2022-12-18T09:57:24;100714.06;;;-0.78;87.08
48888;BME280;42598;53.802;-1.632;2022-12-18T09:59:55;100714.22;;;-0.80;86.98
48888;BME280;42598;53.802;-1.632;2022-12-18T10:02:25;100702.81;;;-0.59;85.68
48888;BME280;42598;53.802;-1.632;2022-12-18T10:05:06;100689.44;;;-0.44;84.22
48888;BME280;42598;53.802;-1.632;2022-12-18T10:07:43;100682.13;;;-1.24;87.33
48888;BME280;42598;53.802;-1.632;2022-12-18T10:10:23;100673.50;;;-1.38;88.29
48888;BME280;42598;53.802;-1.632;2022-12-18T10:12:58;100667.78;;;-1.47;88.54
48888;BME280;42598;53.802;-1.632;2022-12-18T10:15:34;100662.58;;;-0.62;86.78
48888;BME280;42598;53.802;-1.632;2022-12-18T10:18:12;100662.13;;;-1.86;92.64
48888;BME280;42598;53.802;-1.632;2022-12-18T10:20:45;100654.58;;;-2.44;93.08
48888;BME280;42598;53.802;-1.632;2022-12-18T10:23:17;100656.37;;;-2.07;93.40
48888;BME280;42598;53.802;-1.632;2022-12-18T10:25:53;100654.35;;;-2.84;94.99
48888;BME280;42598;53.802;-1.632;2022-12-18T10:28:23;100649.65;;;-2.48;94.24
48888;BME280;42598;53.802;-1.632;2022-12-18T10:30:51;100643.26;;;-2.10;93.31
48888;BME280;42598;53.802;-1.632;2022-12-18T10:33:20;100629.48;;;-1.65;92.05
48888;BME280;42598;53.802;-1.632;2022-12-18T10:35:49;100630.64;;;-1.89;92.91
48888;BME280;42598;53.802;-1.632;2022-12-18T10:38:23;100628.47;;;-1.83;92.24
48888;BME280;42598;53.802;-1.632;2022-12-18T10:40:53;100623.17;;;-2.02;92.49
48888;BME280;42598;53.802;-1.632;2022-12-18T10:43:23;100625.19;;;-2.07;92.27
48888;BME280;42598;53.802;-1.632;2022-12-18T10:46:05;100618.06;;;-1.02;88.38
48888;BME280;42598;53.802;-1.632;2022-12-18T10:48:41;100611.31;;;-2.08;91.15
48888;BME280;42598;53.802;-1.632;2022-12-18T10:51:20;100608.07;;;-1.65;89.60
48888;BME280;42598;53.802;-1.632;2022-12-18T10:53:55;100605.60;;;-2.01;90.74
48888;BME280;42598;53.802;-1.632;2022-12-18T10:56:25;100587.27;;;-1.45;88.41
48888;BME280;42598;53.802;-1.632;2022-12-18T10:58:59;100575.18;;;-1.14;87.04
48888;BME280;42598;53.802;-1.632;2022-12-18T11:02:10;100568.61;;;-1.69;89.26
48888;BME280;42598;53.802;-1.632;2022-12-18T11:05:26;100561.83;;;-0.66;85.94
48888;BME280;42598;53.802;-1.632;2022-12-18T11:07:54;100560.09;;;-1.68;88.18
48888;BME280;42598;53.802;-1.632;2022-12-18T11:10:25;100548.98;;;-1.31;87.95
48888;BME280;42598;53.802;-1.632;2022-12-18T11:12:52;100543.56;;;-1.15;88.72
48888;BME280;42598;53.802;-1.632;2022-12-18T11:15:23;100528.59;;;-0.63;85.70
48888;BME280;42598;53.802;-1.632;2022-12-18T11:17:53;100525.13;;;-1.59;90.18
48888;BME280;42598;53.802;-1.632;2022-12-18T11:20:26;100529.73;;;-1.72;90.49
48888;BME280;42598;53.802;-1.632;2022-12-18T11:22:56;100518.38;;;-1.77;91.99
48888;BME280;42598;53.802;-1.632;2022-12-18T11:25:24;100513.48;;;-1.45;89.40
48888;BME280;42598;53.802;-1.632;2022-12-18T11:27:55;100507.22;;;-1.19;88.56
48888;BME280;42598;53.802;-1.632;2022-12-18T11:30:25;100509.66;;;-0.84;87.96
48888;BME280;42598;53.802;-1.632;2022-12-18T11:32:55;100501.47;;;-1.44;88.61
48888;BME280;42598;53.802;-1.632;2022-12-18T11:35:34;100488.77;;;-1.33;88.41
48888;BME280;42598;53.802;-1.632;2022-12-18T11:38:10;100490.85;;;-1.56;91.14
48888;BME280;42598;53.802;-1.632;2022-12-18T11:40:42;100492.64;;;-0.94;89.71
48888;BME280;42598;53.802;-1.632;2022-12-18T11:43:15;100489.15;;;-1.47;89.61
48888;BME280;42598;53.802;-1.632;2022-12-18T11:45:49;100496.07;;;-1.98;93.13
48888;BME280;42598;53.802;-1.632;2022-12-18T11:48:22;100493.18;;;-1.52;91.56
48888;BME280;42598;53.802;-1.632;2022-12-18T11:50:52;100484.41;;;-0.60;87.32
48888;BME280;42598;53.802;-1.632;2022-12-18T11:53:21;100472.60;;;-1.22;88.92
48888;BME280;42598;53.802;-1.632;2022-12-18T11:55:58;100464.63;;;-1.13;88.44
48888;BME280;42598;53.802;-1.632;2022-12-18T11:58:42;100460.01;;;-1.87;91.48
48888;BME280;42598;53.802;-1.632;2022-12-18T12:01:20;100451.20;;;-1.48;89.83
48888;BME280;42598;53.802;-1.632;2022-12-18T12:04:11;100441.43;;;-1.56;89.46
48888;BME280;42598;53.802;-1.632;2022-12-18T12:06:49;100431.57;;;-0.77;89.62
48888;BME280;42598;53.802;-1.632;2022-12-18T12:09:25;100429.24;;;-1.45;89.59
48888;BME280;42598;53.802;-1.632;2022-12-18T12:12:07;100421.56;;;-1.85;92.17
48888;BME280;42598;53.802;-1.632;2022-12-18T12:14:49;100416.65;;;-1.40;90.88
48888;BME280;42598;53.802;-1.632;2022-12-18T12:17:24;100402.09;;;-1.19;89.27
48888;BME280;42598;53.802;-1.632;2022-12-18T12:19:59;100402.09;;;-0.72;87.97
48888;BME280;42598;53.802;-1.632;2022-12-18T12:22:35;100391.26;;;-0.72;87.32
48888;BME280;42598;53.802;-1.632;2022-12-18T12:25:16;100382.80;;;-0.71;86.54
48888;BME280;42598;53.802;-1.632;2022-12-18T12:27:54;100375.83;;;-0.25;85.12
48888;BME280;42598;53.802;-1.632;2022-12-18T12:30:35;100372.84;;;-1.25;88.63
48888;BME280;42598;53.802;-1.632;2022-12-18T12:33:26;100369.07;;;-1.40;90.83
48888;BME280;42598;53.802;-1.632;2022-12-18T12:36:07;100363.20;;;-1.70;91.90
48888;BME280;42598;53.802;-1.632;2022-12-18T12:38:41;100354.71;;;-1.02;90.64
48888;BME280;42598;53.802;-1.632;2022-12-18T12:41:13;100341.49;;;-1.24;90.51
48888;BME280;42598;53.802;-1.632;2022-12-18T12:43:44;100335.72;;;-1.84;90.89
48888;BME280;42598;53.802;-1.632;2022-12-18T12:46:15;100332.59;;;-0.57;88.98
48888;BME280;42598;53.802;-1.632;2022-12-18T12:48:47;100325.01;;;-1.07;91.08
48888;BME280;42598;53.802;-1.632;2022-12-18T12:51:18;100328.50;;;-1.25;91.69
48888;BME280;42598;53.802;-1.632;2022-12-18T12:53:46;100330.21;;;-0.78;91.09
48888;BME280;42598;53.802;-1.632;2022-12-18T12:56:16;100325.15;;;-1.42;91.36
48888;BME280;42598;53.802;-1.632;2022-12-18T12:58:52;100314.15;;;-1.23;91.67